sensor_id;sensor_type;location;lat;lon;timestamp;temperature;humidity
49379;DHT22;35254;47.990;-1.608;2023-01-16T00:00:01;17.70;60.00
49379;DHT22;35254;47.990;-1.608;2023-01-16T00:02:27;17.70;60.00
49379;DHT22;35254;47.990;-1.608;2023-01-16T00:04:52;17.70;60.00
49379;DHT22;35254;47.990;-1.608;2023-01-16T00:07:18;17.70;59.90
49379;DHT22;35254;47.990;-1.608;2023-01-16T00:09:43;17.70;59.90
49379;DHT22;35254;47.990;-1.608;2023-01-16T00:12:09;17.70;59.80
49379;DHT22;35254;47.990;-1.608;2023-01-16T00:14:35;17.70;59.80
49379;DHT22;35254;47.990;-1.608;2023-01-16T00:17:00;17.70;59.80
49379;DHT22;35254;47.990;-1.608;2023-01-16T00:19:26;17.70;59.70
49379;DHT22;35254;47.990;-1.608;2023-01-16T00:21:51;17.70;59.70
49379;DHT22;35254;47.990;-1.608;2023-01-16T00:24:17;17.70;59.80
49379;DHT22;35254;47.990;-1.608;2023-01-16T00:26:43;17.70;59.70
49379;DHT22;35254;47.990;-1.608;2023-01-16T00:29:08;17.70;59.70
49379;DHT22;35254;47.990;-1.608;2023-01-16T00:31:34;17.70;59.60
49379;DHT22;35254;47.990;-1.608;2023-01-16T00:34:00;17.70;59.80
49379;DHT22;35254;47.990;-1.608;2023-01-16T00:36:25;17.70;59.70
49379;DHT22;35254;47.990;-1.608;2023-01-16T00:38:51;17.70;59.60
49379;DHT22;35254;47.990;-1.608;2023-01-16T00:41:17;17.70;59.70
49379;DHT22;35254;47.990;-1.608;2023-01-16T00:43:42;17.70;59.60
49379;DHT22;35254;47.990;-1.608;2023-01-16T00:46:08;17.70;59.60
49379;DHT22;35254;47.990;-1.608;2023-01-16T00:48:34;17.70;59.90
49379;DHT22;35254;47.990;-1.608;2023-01-16T00:50:59;17.70;59.80
49379;DHT22;35254;47.990;-1.608;2023-01-16T00:53:25;17.70;59.80
49379;DHT22;35254;47.990;-1.608;2023-01-16T00:55:51;17.70;59.70
49379;DHT22;35254;47.990;-1.608;2023-01-16T00:58:17;17.70;59.80
49379;DHT22;35254;47.990;-1.608;2023-01-16T01:00:43;17.80;59.70
49379;DHT22;35254;47.990;-1.608;2023-01-16T01:03:09;17.80;59.70
49379;DHT22;35254;47.990;-1.608;2023-01-16T01:05:36;17.80;59.60
49379;DHT22;35254;47.990;-1.608;2023-01-16T01:08:02;17.70;59.50
49379;DHT22;35254;47.990;-1.608;2023-01-16T01:10:28;17.80;59.50
49379;DHT22;35254;47.990;-1.608;2023-01-16T01:12:54;17.80;59.50
49379;DHT22;35254;47.990;-1.608;2023-01-16T01:15:21;17.80;59.70
49379;DHT22;35254;47.990;-1.608;2023-01-16T01:17:47;17.80;59.70
49379;DHT22;35254;47.990;-1.608;2023-01-16T01:20:13;17.80;59.70
49379;DHT22;35254;47.990;-1.608;2023-01-16T01:22:38;17.70;59.80
49379;DHT22;35254;47.990;-1.608;2023-01-16T01:25:04;17.80;59.90
49379;DHT22;35254;47.990;-1.608;2023-01-16T01:27:30;17.80;59.90
49379;DHT22;35254;47.990;-1.608;2023-01-16T01:29:55;17.80;59.90
49379;DHT22;35254;47.990;-1.608;2023-01-16T01:32:21;17.80;59.80
49379;DHT22;35254;47.990;-1.608;2023-01-16T01:34:47;17.70;59.80
49379;DHT22;35254;47.990;-1.608;2023-01-16T01:37:12;17.70;60.00
49379;DHT22;35254;47.990;-1.608;2023-01-16T01:39:38;17.70;59.90
49379;DHT22;35254;47.990;-1.608;2023-01-16T01:42:04;17.70;60.00
49379;DHT22;35254;47.990;-1.608;2023-01-16T01:47:18;17.70;59.90
49379;DHT22;35254;47.990;-1.608;2023-01-16T01:49:46;17.80;59.80
49379;DHT22;35254;47.990;-1.608;2023-01-16T01:52:13;17.80;59.80
49379;DHT22;35254;47.990;-1.608;2023-01-16T01:54:44;17.70;59.80
49379;DHT22;35254;47.990;-1.608;2023-01-16T01:57:20;17.70;59.70
49379;DHT22;35254;47.990;-1.608;2023-01-16T01:59:52;17.80;59.60
49379;DHT22;35254;47.990;-1.608;2023-01-16T02:02:21;17.80;59.60
49379;DHT22;35254;47.990;-1.608;2023-01-16T02:04:49;17.70;59.60
49379;DHT22;35254;47.990;-1.608;2023-01-16T02:07:23;17.80;59.60
49379;DHT22;35254;47.990;-1.608;2023-01-16T02:09:55;17.70;59.50
49379;DHT22;35254;47.990;-1.608;2023-01-16T02:12:21;17.80;59.50
49379;DHT22;35254;47.990;-1.608;2023-01-16T02:14:47;17.70;59.40
49379;DHT22;35254;47.990;-1.608;2023-01-16T02:17:19;17.70;59.40
49379;DHT22;35254;47.990;-1.608;2023-01-16T02:23:02;17.80;59.30
49379;DHT22;35254;47.990;-1.608;2023-01-16T02:42:53;17.70;59.40
49379;DHT22;35254;47.990;-1.608;2023-01-16T02:45:39;17.70;59.30
49379;DHT22;35254;47.990;-1.608;2023-01-16T02:48:26;17.70;59.30
49379;DHT22;35254;47.990;-1.608;2023-01-16T02:54:00;17.70;59.20
49379;DHT22;35254;47.990;-1.608;2023-01-16T02:56:35;17.70;59.30
49379;DHT22;35254;47.990;-1.608;2023-01-16T02:59:04;17.70;59.20
49379;DHT22;35254;47.990;-1.608;2023-01-16T03:01:34;17.70;59.10
49379;DHT22;35254;47.990;-1.608;2023-01-16T03:06:35;17.70;59.20
49379;DHT22;35254;47.990;-1.608;2023-01-16T03:09:37;17.70;59.20
49379;DHT22;35254;47.990;-1.608;2023-01-16T03:12:16;17.70;59.10
49379;DHT22;35254;47.990;-1.608;2023-01-16T03:14:50;17.70;59.10
49379;DHT22;35254;47.990;-1.608;2023-01-16T03:22:56;17.70;59.00
49379;DHT22;35254;47.990;-1.608;2023-01-16T03:25:41;17.70;58.80
49379;DHT22;35254;47.990;-1.608;2023-01-16T03:28:40;17.70;58.80
49379;DHT22;35254;47.990;-1.608;2023-01-16T03:31:20;17.70;58.80
49379;DHT22;35254;47.990;-1.608;2023-01-16T03:34:20;17.70;58.80
49379;DHT22;35254;47.990;-1.608;2023-01-16T03:39:26;17.70;58.80
49379;DHT22;35254;47.990;-1.608;2023-01-16T03:41:55;17.70;58.80
49379;DHT22;35254;47.990;-1.608;2023-01-16T03:44:33;17.70;58.60
49379;DHT22;35254;47.990;-1.608;2023-01-16T03:47:00;17.70;58.70
49379;DHT22;35254;47.990;-1.608;2023-01-16T03:49:33;17.80;58.60
49379;DHT22;35254;47.990;-1.608;2023-01-16T03:52:02;17.70;58.60
49379;DHT22;35254;47.990;-1.608;2023-01-16T03:57:04;17.70;58.50
49379;DHT22;35254;47.990;-1.608;2023-01-16T03:59:33;17.70;58.50
49379;DHT22;35254;47.990;-1.608;2023-01-16T04:02:23;17.70;58.50
49379;DHT22;35254;47.990;-1.608;2023-01-16T04:07:42;17.70;58.50
49379;DHT22;35254;47.990;-1.608;2023-01-16T04:10:28;17.70;58.40
49379;DHT22;35254;47.990;-1.608;2023-01-16T04:13:04;17.70;58.40
49379;DHT22;35254;47.990;-1.608;2023-01-16T04:15:31;17.70;58.30
49379;DHT22;35254;47.990;-1.608;2023-01-16T04:17:58;17.70;58.30
49379;DHT22;35254;47.990;-1.608;2023-01-16T04:20:25;17.70;58.30
49379;DHT22;35254;47.990;-1.608;2023-01-16T04:22:52;17.70;58.20
49379;DHT22;35254;47.990;-1.608;2023-01-16T04:25:19;17.70;58.20
49379;DHT22;35254;47.990;-1.608;2023-01-16T04:27:45;17.70;58.10
49379;DHT22;35254;47.990;-1.608;2023-01-16T04:30:11;17.70;58.00
49379;DHT22;35254;47.990;-1.608;2023-01-16T04:32:37;17.70;58.10
49379;DHT22;35254;47.990;-1.608;2023-01-16T04:35:04;17.70;58.00
49379;DHT22;35254;47.990;-1.608;2023-01-16T04:37:30;17.70;58.00
49379;DHT22;35254;47.990;-1.608;2023-01-16T04:39:55;17.70;58.00
49379;DHT22;35254;47.990;-1.608;2023-01-16T04:42:21;17.70;58.10
49379;DHT22;35254;47.990;-1.608;2023-01-16T04:44:47;17.70;58.00
49379;DHT22;35254;47.990;-1.608;2023-01-16T04:47:13;17.70;57.90
49379;DHT22;35254;47.990;-1.608;2023-01-16T04:49:38;17.70;58.00
49379;DHT22;35254;47.990;-1.608;2023-01-16T04:52:04;17.70;58.00
49379;DHT22;35254;47.990;-1.608;2023-01-16T04:54:30;17.70;58.00
49379;DHT22;35254;47.990;-1.608;2023-01-16T04:56:56;17.70;57.90
49379;DHT22;35254;47.990;-1.608;2023-01-16T04:59:22;17.70;58.00
49379;DHT22;35254;47.990;-1.608;2023-01-16T05:01:48;17.70;58.00
49379;DHT22;35254;47.990;-1.608;2023-01-16T05:04:15;17.70;58.00
49379;DHT22;35254;47.990;-1.608;2023-01-16T05:06:41;17.70;58.00
49379;DHT22;35254;47.990;-1.608;2023-01-16T05:09:07;17.70;58.00
49379;DHT22;35254;47.990;-1.608;2023-01-16T05:11:34;17.70;58.00
49379;DHT22;35254;47.990;-1.608;2023-01-16T05:14:00;17.70;58.00
49379;DHT22;35254;47.990;-1.608;2023-01-16T05:16:26;17.70;58.00
49379;DHT22;35254;47.990;-1.608;2023-01-16T05:18:52;17.70;58.00
49379;DHT22;35254;47.990;-1.608;2023-01-16T05:21:18;17.70;58.00
49379;DHT22;35254;47.990;-1.608;2023-01-16T05:23:43;17.70;58.00
49379;DHT22;35254;47.990;-1.608;2023-01-16T05:26:09;17.70;58.00
49379;DHT22;35254;47.990;-1.608;2023-01-16T05:28:36;17.70;58.00
49379;DHT22;35254;47.990;-1.608;2023-01-16T05:31:02;17.70;58.00
49379;DHT22;35254;47.990;-1.608;2023-01-16T05:33:28;17.70;58.00
49379;DHT22;35254;47.990;-1.608;2023-01-16T05:35:55;17.70;58.00
49379;DHT22;35254;47.990;-1.608;2023-01-16T05:38:21;17.70;58.00
49379;DHT22;35254;47.990;-1.608;2023-01-16T05:40:47;17.70;58.00
49379;DHT22;35254;47.990;-1.608;2023-01-16T05:43:13;17.70;58.00
49379;DHT22;35254;47.990;-1.608;2023-01-16T05:45:39;17.70;58.00
49379;DHT22;35254;47.990;-1.608;2023-01-16T05:48:05;17.70;58.00
49379;DHT22;35254;47.990;-1.608;2023-01-16T05:50:31;17.70;58.00
49379;DHT22;35254;47.990;-1.608;2023-01-16T05:52:57;17.70;58.00
49379;DHT22;35254;47.990;-1.608;2023-01-16T05:55:23;17.70;58.00
49379;DHT22;35254;47.990;-1.608;2023-01-16T05:57:48;17.70;58.00
49379;DHT22;35254;47.990;-1.608;2023-01-16T06:00:15;17.70;58.10
49379;DHT22;35254;47.990;-1.608;2023-01-16T06:02:40;17.70;58.00
49379;DHT22;35254;47.990;-1.608;2023-01-16T06:05:06;17.80;58.10
49379;DHT22;35254;47.990;-1.608;2023-01-16T06:07:32;17.70;58.00
49379;DHT22;35254;47.990;-1.608;2023-01-16T06:09:58;17.80;58.00
49379;DHT22;35254;47.990;-1.608;2023-01-16T06:12:23;17.70;58.00
49379;DHT22;35254;47.990;-1.608;2023-01-16T06:14:50;17.70;57.90
49379;DHT22;35254;47.990;-1.608;2023-01-16T06:17:16;17.70;57.80
49379;DHT22;35254;47.990;-1.608;2023-01-16T06:19:44;17.70;57.70
49379;DHT22;35254;47.990;-1.608;2023-01-16T06:22:11;17.70;57.70
49379;DHT22;35254;47.990;-1.608;2023-01-16T06:24:37;17.70;57.60
49379;DHT22;35254;47.990;-1.608;2023-01-16T06:27:02;17.70;57.50
49379;DHT22;35254;47.990;-1.608;2023-01-16T06:29:28;17.80;57.60
49379;DHT22;35254;47.990;-1.608;2023-01-16T06:31:54;17.80;57.60
49379;DHT22;35254;47.990;-1.608;2023-01-16T06:34:19;17.80;57.50
49379;DHT22;35254;47.990;-1.608;2023-01-16T06:36:45;17.80;57.60
49379;DHT22;35254;47.990;-1.608;2023-01-16T06:39:13;17.80;57.50
49379;DHT22;35254;47.990;-1.608;2023-01-16T06:41:39;17.80;57.50
49379;DHT22;35254;47.990;-1.608;2023-01-16T06:44:05;17.70;57.50
49379;DHT22;35254;47.990;-1.608;2023-01-16T06:46:30;17.70;57.40
49379;DHT22;35254;47.990;-1.608;2023-01-16T06:48:56;17.80;57.50
49379;DHT22;35254;47.990;-1.608;2023-01-16T06:51:22;17.80;57.50
49379;DHT22;35254;47.990;-1.608;2023-01-16T06:53:47;17.80;57.40
49379;DHT22;35254;47.990;-1.608;2023-01-16T06:56:13;17.80;57.30
49379;DHT22;35254;47.990;-1.608;2023-01-16T06:58:38;17.80;57.30
49379;DHT22;35254;47.990;-1.608;2023-01-16T07:01:04;17.80;57.20
49379;DHT22;35254;47.990;-1.608;2023-01-16T07:03:30;17.80;57.30
49379;DHT22;35254;47.990;-1.608;2023-01-16T07:05:56;17.80;57.30
49379;DHT22;35254;47.990;-1.608;2023-01-16T07:08:22;17.90;57.40
49379;DHT22;35254;47.990;-1.608;2023-01-16T07:10:47;17.80;57.40
49379;DHT22;35254;47.990;-1.608;2023-01-16T07:13:13;17.80;57.50
49379;DHT22;35254;47.990;-1.608;2023-01-16T07:15:43;17.90;57.70
49379;DHT22;35254;47.990;-1.608;2023-01-16T07:18:29;17.90;57.80
49379;DHT22;35254;47.990;-1.608;2023-01-16T07:21:13;18.00;58.00
49379;DHT22;35254;47.990;-1.608;2023-01-16T07:24:03;18.00;59.20
49379;DHT22;35254;47.990;-1.608;2023-01-16T07:26:30;18.00;59.50
49379;DHT22;35254;47.990;-1.608;2023-01-16T07:28:57;18.10;60.80
49379;DHT22;35254;47.990;-1.608;2023-01-16T07:31:23;18.10;60.70
49379;DHT22;35254;47.990;-1.608;2023-01-16T07:33:49;18.00;61.70
49379;DHT22;35254;47.990;-1.608;2023-01-16T07:36:16;18.00;62.10
49379;DHT22;35254;47.990;-1.608;2023-01-16T07:38:42;18.00;62.50
49379;DHT22;35254;47.990;-1.608;2023-01-16T07:41:08;18.00;62.80
49379;DHT22;35254;47.990;-1.608;2023-01-16T07:43:34;18.00;63.10
49379;DHT22;35254;47.990;-1.608;2023-01-16T07:46:00;18.00;63.30
49379;DHT22;35254;47.990;-1.608;2023-01-16T07:48:26;18.00;63.40
49379;DHT22;35254;47.990;-1.608;2023-01-16T07:50:57;18.10;63.40
49379;DHT22;35254;47.990;-1.608;2023-01-16T07:53:24;18.10;63.80
49379;DHT22;35254;47.990;-1.608;2023-01-16T07:55:56;18.00;64.00
49379;DHT22;35254;47.990;-1.608;2023-01-16T07:58:23;18.10;64.30
49379;DHT22;35254;47.990;-1.608;2023-01-16T08:00:51;18.00;64.00
49379;DHT22;35254;47.990;-1.608;2023-01-16T08:03:17;18.10;64.20
49379;DHT22;35254;47.990;-1.608;2023-01-16T08:05:42;18.10;64.50
49379;DHT22;35254;47.990;-1.608;2023-01-16T08:08:12;18.10;64.30
49379;DHT22;35254;47.990;-1.608;2023-01-16T08:10:38;18.10;64.40
49379;DHT22;35254;47.990;-1.608;2023-01-16T08:13:05;18.10;64.30
49379;DHT22;35254;47.990;-1.608;2023-01-16T08:15:30;18.10;64.60
49379;DHT22;35254;47.990;-1.608;2023-01-16T08:17:56;18.10;64.60
49379;DHT22;35254;47.990;-1.608;2023-01-16T08:20:22;18.20;64.60
49379;DHT22;35254;47.990;-1.608;2023-01-16T08:22:50;18.20;65.00
49379;DHT22;35254;47.990;-1.608;2023-01-16T08:25:19;18.10;64.80
49379;DHT22;35254;47.990;-1.608;2023-01-16T08:27:45;18.20;65.00
49379;DHT22;35254;47.990;-1.608;2023-01-16T08:30:11;18.20;64.50
49379;DHT22;35254;47.990;-1.608;2023-01-16T08:32:37;18.20;64.80
49379;DHT22;35254;47.990;-1.608;2023-01-16T08:35:03;18.20;65.00
49379;DHT22;35254;47.990;-1.608;2023-01-16T08:37:33;18.20;65.00
49379;DHT22;35254;47.990;-1.608;2023-01-16T08:39:59;18.20;64.90
49379;DHT22;35254;47.990;-1.608;2023-01-16T08:42:25;18.20;64.80
49379;DHT22;35254;47.990;-1.608;2023-01-16T08:45:10;18.20;64.80
49379;DHT22;35254;47.990;-1.608;2023-01-16T08:47:55;18.20;65.00
49379;DHT22;35254;47.990;-1.608;2023-01-16T08:50:39;18.20;64.70
49379;DHT22;35254;47.990;-1.608;2023-01-16T08:53:24;18.20;65.00
49379;DHT22;35254;47.990;-1.608;2023-01-16T08:55:49;18.20;64.80
49379;DHT22;35254;47.990;-1.608;2023-01-16T08:58:15;18.20;65.00
49379;DHT22;35254;47.990;-1.608;2023-01-16T09:00:41;18.20;64.60
49379;DHT22;35254;47.990;-1.608;2023-01-16T09:03:07;18.20;64.70
49379;DHT22;35254;47.990;-1.608;2023-01-16T09:05:33;18.30;64.90
49379;DHT22;35254;47.990;-1.608;2023-01-16T09:07:58;18.20;64.60
49379;DHT22;35254;47.990;-1.608;2023-01-16T09:10:24;18.30;64.70
49379;DHT22;35254;47.990;-1.608;2023-01-16T09:12:50;18.30;64.80
49379;DHT22;35254;47.990;-1.608;2023-01-16T09:15:34;18.40;64.90
49379;DHT22;35254;47.990;-1.608;2023-01-16T09:18:00;18.30;64.60
49379;DHT22;35254;47.990;-1.608;2023-01-16T09:20:26;18.40;64.90
49379;DHT22;35254;47.990;-1.608;2023-01-16T09:23:02;18.30;64.60
49379;DHT22;35254;47.990;-1.608;2023-01-16T09:25:30;18.40;65.00
49379;DHT22;35254;47.990;-1.608;2023-01-16T09:27:56;18.40;65.30
49379;DHT22;35254;47.990;-1.608;2023-01-16T09:30:22;18.40;64.90
49379;DHT22;35254;47.990;-1.608;2023-01-16T09:32:47;18.40;65.20
49379;DHT22;35254;47.990;-1.608;2023-01-16T09:35:14;18.40;65.00
49379;DHT22;35254;47.990;-1.608;2023-01-16T09:37:41;18.40;65.10
49379;DHT22;35254;47.990;-1.608;2023-01-16T09:40:17;18.40;65.10
49379;DHT22;35254;47.990;-1.608;2023-01-16T09:45:43;18.40;64.90
49379;DHT22;35254;47.990;-1.608;2023-01-16T09:48:15;18.40;65.10
49379;DHT22;35254;47.990;-1.608;2023-01-16T09:50:48;18.40;64.70
49379;DHT22;35254;47.990;-1.608;2023-01-16T09:56:12;18.40;63.90
49379;DHT22;35254;47.990;-1.608;2023-01-16T10:01:39;18.40;63.50
49379;DHT22;35254;47.990;-1.608;2023-01-16T10:04:18;18.40;63.40
49379;DHT22;35254;47.990;-1.608;2023-01-16T10:07:11;18.40;63.50
49379;DHT22;35254;47.990;-1.608;2023-01-16T10:12:38;18.40;63.20
49379;DHT22;35254;47.990;-1.608;2023-01-16T10:26:08;18.50;62.10
49379;DHT22;35254;47.990;-1.608;2023-01-16T10:29:32;18.50;62.10
49379;DHT22;35254;47.990;-1.608;2023-01-16T10:31:40;18.60;61.90
49379;DHT22;35254;47.990;-1.608;2023-01-16T10:34:20;18.60;62.20
49379;DHT22;35254;47.990;-1.608;2023-01-16T10:36:49;18.60;62.00
49379;DHT22;35254;47.990;-1.608;2023-01-16T10:39:17;18.60;61.30
49379;DHT22;35254;47.990;-1.608;2023-01-16T10:41:52;18.70;61.40
49379;DHT22;35254;47.990;-1.608;2023-01-16T10:44:42;18.70;61.20
49379;DHT22;35254;47.990;-1.608;2023-01-16T10:47:32;18.70;61.40
49379;DHT22;35254;47.990;-1.608;2023-01-16T10:50:18;18.70;61.30
49379;DHT22;35254;47.990;-1.608;2023-01-16T10:52:45;18.70;61.10
49379;DHT22;35254;47.990;-1.608;2023-01-16T10:55:12;18.70;61.00
49379;DHT22;35254;47.990;-1.608;2023-01-16T10:57:52;18.80;60.90
49379;DHT22;35254;47.990;-1.608;2023-01-16T11:00:24;18.90;60.50
49379;DHT22;35254;47.990;-1.608;2023-01-16T11:02:58;18.80;60.50
49379;DHT22;35254;47.990;-1.608;2023-01-16T11:05:33;18.80;60.00
49379;DHT22;35254;47.990;-1.608;2023-01-16T11:08:09;18.80;60.10
49379;DHT22;35254;47.990;-1.608;2023-01-16T11:10:35;18.90;60.10
49379;DHT22;35254;47.990;-1.608;2023-01-16T11:13:02;18.90;60.00
49379;DHT22;35254;47.990;-1.608;2023-01-16T11:16:20;19.00;60.40
49379;DHT22;35254;47.990;-1.608;2023-01-16T11:19:23;18.90;60.40
49379;DHT22;35254;47.990;-1.608;2023-01-16T11:21:57;18.90;60.40
49379;DHT22;35254;47.990;-1.608;2023-01-16T11:24:34;19.00;61.30
49379;DHT22;35254;47.990;-1.608;2023-01-16T11:27:01;19.00;60.10
49379;DHT22;35254;47.990;-1.608;2023-01-16T11:29:33;19.10;59.90
49379;DHT22;35254;47.990;-1.608;2023-01-16T11:32:06;19.20;60.80
49379;DHT22;35254;47.990;-1.608;2023-01-16T11:34:32;19.20;61.40
49379;DHT22;35254;47.990;-1.608;2023-01-16T11:37:01;19.20;61.20
49379;DHT22;35254;47.990;-1.608;2023-01-16T11:39:30;19.20;62.10
49379;DHT22;35254;47.990;-1.608;2023-01-16T11:41:58;19.20;62.30
49379;DHT22;35254;47.990;-1.608;2023-01-16T11:44:29;19.20;62.20
49379;DHT22;35254;47.990;-1.608;2023-01-16T11:47:21;19.20;62.70
49379;DHT22;35254;47.990;-1.608;2023-01-16T11:49:49;19.30;62.50
49379;DHT22;35254;47.990;-1.608;2023-01-16T11:52:17;19.30;62.50
49379;DHT22;35254;47.990;-1.608;2023-01-16T11:54:56;19.30;62.90
49379;DHT22;35254;47.990;-1.608;2023-01-16T12:13:48;19.30;62.40
49379;DHT22;35254;47.990;-1.608;2023-01-16T12:37:08;19.40;62.40
49379;DHT22;35254;47.990;-1.608;2023-01-16T12:52:59;19.50;61.20
49379;DHT22;35254;47.990;-1.608;2023-01-16T12:58:19;19.50;61.10
49379;DHT22;35254;47.990;-1.608;2023-01-16T13:01:11;19.50;61.30
49379;DHT22;35254;47.990;-1.608;2023-01-16T13:03:52;19.50;61.10
49379;DHT22;35254;47.990;-1.608;2023-01-16T13:08:58;19.60;60.80
49379;DHT22;35254;47.990;-1.608;2023-01-16T13:11:34;19.60;60.90
49379;DHT22;35254;47.990;-1.608;2023-01-16T13:14:22;19.60;60.70
49379;DHT22;35254;47.990;-1.608;2023-01-16T13:17:07;19.60;60.70
49379;DHT22;35254;47.990;-1.608;2023-01-16T13:19:37;19.60;60.60
49379;DHT22;35254;47.990;-1.608;2023-01-16T13:25:01;19.70;60.40
49379;DHT22;35254;47.990;-1.608;2023-01-16T13:30:40;19.60;60.30
49379;DHT22;35254;47.990;-1.608;2023-01-16T13:33:15;19.60;60.30
49379;DHT22;35254;47.990;-1.608;2023-01-16T13:46:38;19.70;60.20
49379;DHT22;35254;47.990;-1.608;2023-01-16T13:49:05;19.70;60.10
49379;DHT22;35254;47.990;-1.608;2023-01-16T13:51:40;19.70;60.00
49379;DHT22;35254;47.990;-1.608;2023-01-16T13:54:13;19.70;59.70
49379;DHT22;35254;47.990;-1.608;2023-01-16T13:56:40;19.70;59.80
49379;DHT22;35254;47.990;-1.608;2023-01-16T13:59:08;19.70;59.70
49379;DHT22;35254;47.990;-1.608;2023-01-16T14:06:51;19.70;59.80
49379;DHT22;35254;47.990;-1.608;2023-01-16T14:12:33;19.70;59.90
49379;DHT22;35254;47.990;-1.608;2023-01-16T14:15:19;19.80;59.70
49379;DHT22;35254;47.990;-1.608;2023-01-16T14:18:20;19.80;59.70
49379;DHT22;35254;47.990;-1.608;2023-01-16T14:20:51;19.80;59.50
49379;DHT22;35254;47.990;-1.608;2023-01-16T14:23:33;19.80;59.40
49379;DHT22;35254;47.990;-1.608;2023-01-16T14:26:44;19.80;59.50
49379;DHT22;35254;47.990;-1.608;2023-01-16T14:29:21;19.80;59.30
49379;DHT22;35254;47.990;-1.608;2023-01-16T14:31:57;19.70;59.00
49379;DHT22;35254;47.990;-1.608;2023-01-16T14:34:27;19.70;58.80
49379;DHT22;35254;47.990;-1.608;2023-01-16T14:36:59;19.80;58.80
49379;DHT22;35254;47.990;-1.608;2023-01-16T14:39:33;19.80;58.50
49379;DHT22;35254;47.990;-1.608;2023-01-16T14:48:13;19.80;58.30
49379;DHT22;35254;47.990;-1.608;2023-01-16T14:51:10;19.80;58.40
49379;DHT22;35254;47.990;-1.608;2023-01-16T14:54:00;19.70;58.40
49379;DHT22;35254;47.990;-1.608;2023-01-16T14:56:50;19.80;58.20
49379;DHT22;35254;47.990;-1.608;2023-01-16T14:59:33;19.80;58.30
49379;DHT22;35254;47.990;-1.608;2023-01-16T15:07:48;19.70;58.10
49379;DHT22;35254;47.990;-1.608;2023-01-16T15:10:38;19.70;58.20
49379;DHT22;35254;47.990;-1.608;2023-01-16T15:15:48;19.70;58.10
49379;DHT22;35254;47.990;-1.608;2023-01-16T15:18:17;19.70;58.20
49379;DHT22;35254;47.990;-1.608;2023-01-16T15:21:15;19.70;58.20
49379;DHT22;35254;47.990;-1.608;2023-01-16T15:24:00;19.70;58.30
49379;DHT22;35254;47.990;-1.608;2023-01-16T15:29:13;19.70;58.10
49379;DHT22;35254;47.990;-1.608;2023-01-16T15:31:52;19.70;58.30
49379;DHT22;35254;47.990;-1.608;2023-01-16T15:34:26;19.70;58.40
49379;DHT22;35254;47.990;-1.608;2023-01-16T15:36:54;19.70;58.40
49379;DHT22;35254;47.990;-1.608;2023-01-16T15:42:18;19.70;58.40
49379;DHT22;35254;47.990;-1.608;2023-01-16T15:45:24;19.70;58.40
49379;DHT22;35254;47.990;-1.608;2023-01-16T15:50:56;19.70;58.10
49379;DHT22;35254;47.990;-1.608;2023-01-16T15:53:24;19.70;58.00
49379;DHT22;35254;47.990;-1.608;2023-01-16T15:56:00;19.70;57.90
49379;DHT22;35254;47.990;-1.608;2023-01-16T15:58:26;19.70;57.90
49379;DHT22;35254;47.990;-1.608;2023-01-16T16:00:59;19.70;57.80
49379;DHT22;35254;47.990;-1.608;2023-01-16T16:03:39;19.70;57.90
49379;DHT22;35254;47.990;-1.608;2023-01-16T16:06:09;19.70;58.00
49379;DHT22;35254;47.990;-1.608;2023-01-16T16:08:40;19.70;58.10
49379;DHT22;35254;47.990;-1.608;2023-01-16T16:11:10;19.70;58.30
49379;DHT22;35254;47.990;-1.608;2023-01-16T16:13:57;19.70;58.40
49379;DHT22;35254;47.990;-1.608;2023-01-16T16:16:26;19.70;58.40
49379;DHT22;35254;47.990;-1.608;2023-01-16T16:19:33;19.70;58.30
49379;DHT22;35254;47.990;-1.608;2023-01-16T16:22:08;19.70;58.40
49379;DHT22;35254;47.990;-1.608;2023-01-16T16:24:54;19.70;58.20
49379;DHT22;35254;47.990;-1.608;2023-01-16T16:27:19;19.70;58.20
49379;DHT22;35254;47.990;-1.608;2023-01-16T16:29:52;19.70;58.20
49379;DHT22;35254;47.990;-1.608;2023-01-16T16:32:19;19.60;58.20
49379;DHT22;35254;47.990;-1.608;2023-01-16T16:34:53;19.70;58.10
49379;DHT22;35254;47.990;-1.608;2023-01-16T16:37:21;19.70;58.00
49379;DHT22;35254;47.990;-1.608;2023-01-16T16:39:48;19.70;57.80
49379;DHT22;35254;47.990;-1.608;2023-01-16T16:47:35;19.70;57.10
49379;DHT22;35254;47.990;-1.608;2023-01-16T16:52:46;19.70;56.60
49379;DHT22;35254;47.990;-1.608;2023-01-16T16:55:35;19.60;57.10
49379;DHT22;35254;47.990;-1.608;2023-01-16T16:58:04;19.60;57.20
49379;DHT22;35254;47.990;-1.608;2023-01-16T17:00:32;19.60;56.60
49379;DHT22;35254;47.990;-1.608;2023-01-16T17:03:26;19.60;56.80
49379;DHT22;35254;47.990;-1.608;2023-01-16T17:05:53;19.60;57.00
49379;DHT22;35254;47.990;-1.608;2023-01-16T17:08:25;19.60;56.80
49379;DHT22;35254;47.990;-1.608;2023-01-16T17:10:54;19.60;56.70
49379;DHT22;35254;47.990;-1.608;2023-01-16T17:13:22;19.70;56.70
49379;DHT22;35254;47.990;-1.608;2023-01-16T17:15:51;19.60;56.90
49379;DHT22;35254;47.990;-1.608;2023-01-16T17:18:18;19.60;56.60
49379;DHT22;35254;47.990;-1.608;2023-01-16T17:20:44;19.60;56.60
49379;DHT22;35254;47.990;-1.608;2023-01-16T17:23:16;19.60;56.40
49379;DHT22;35254;47.990;-1.608;2023-01-16T17:25:42;19.60;56.00
49379;DHT22;35254;47.990;-1.608;2023-01-16T17:28:09;19.60;55.70
49379;DHT22;35254;47.990;-1.608;2023-01-16T17:30:35;19.60;55.80
49379;DHT22;35254;47.990;-1.608;2023-01-16T17:33:09;19.60;56.20
49379;DHT22;35254;47.990;-1.608;2023-01-16T17:35:40;19.60;56.10
49379;DHT22;35254;47.990;-1.608;2023-01-16T17:38:17;19.60;55.90
49379;DHT22;35254;47.990;-1.608;2023-01-16T17:40:45;19.60;55.90
49379;DHT22;35254;47.990;-1.608;2023-01-16T17:43:16;19.60;55.80
49379;DHT22;35254;47.990;-1.608;2023-01-16T17:46:05;19.60;55.90
49379;DHT22;35254;47.990;-1.608;2023-01-16T17:48:31;19.60;55.70
49379;DHT22;35254;47.990;-1.608;2023-01-16T17:50:57;19.60;55.50
49379;DHT22;35254;47.990;-1.608;2023-01-16T17:53:28;19.60;55.80
49379;DHT22;35254;47.990;-1.608;2023-01-16T17:55:56;19.60;55.70
49379;DHT22;35254;47.990;-1.608;2023-01-16T17:58:39;19.60;55.70
49379;DHT22;35254;47.990;-1.608;2023-01-16T18:03:38;19.60;55.60
49379;DHT22;35254;47.990;-1.608;2023-01-16T18:06:06;19.60;55.70
49379;DHT22;35254;47.990;-1.608;2023-01-16T18:08:32;19.50;55.50
49379;DHT22;35254;47.990;-1.608;2023-01-16T18:10:59;19.50;55.40
49379;DHT22;35254;47.990;-1.608;2023-01-16T18:13:45;19.60;54.80
49379;DHT22;35254;47.990;-1.608;2023-01-16T18:16:30;19.50;55.10
49379;DHT22;35254;47.990;-1.608;2023-01-16T18:19:14;19.60;55.40
49379;DHT22;35254;47.990;-1.608;2023-01-16T18:21:39;19.50;55.50
49379;DHT22;35254;47.990;-1.608;2023-01-16T18:24:23;19.50;55.30
49379;DHT22;35254;47.990;-1.608;2023-01-16T18:26:49;19.60;55.30
49379;DHT22;35254;47.990;-1.608;2023-01-16T18:29:14;19.50;55.10
49379;DHT22;35254;47.990;-1.608;2023-01-16T18:31:40;19.50;55.10
49379;DHT22;35254;47.990;-1.608;2023-01-16T18:34:26;19.50;55.30
49379;DHT22;35254;47.990;-1.608;2023-01-16T18:36:51;19.50;55.10
49379;DHT22;35254;47.990;-1.608;2023-01-16T18:39:17;19.50;54.90